SHMÚ vydal meteorologické výstrahy na Vietor na horáchVietor Zobraziť výstrahy

TAF

Letisková predpoveď TAF

Informácie o správe TAF

24.03.2019 - 23:00 UTC (Včera)

TAF LZIB 242300Z 2500/2600 32006KT CAVOK
    TEMPO 2500/2514 9999 FEW045 BKN090
    PROB40 TEMPO 2502/2514 -SHRA BKN020
    TEMPO 2512/2521 32015G28KT=
TAF LZKZ 242300Z 2500/2600 02007KT CAVOK
    BECMG 2500/2502 9999 FEW045 BKN080
    PROB30 TEMPO 2501/2507 -RA BKN030
    TEMPO 2504/2513 01017KT
    TEMPO 2511/2519 -SHRA BKN040=
TAF LZTT 242300Z 2500/2600 VRB02KT 9999 FEW025 BKN040
    TEMPO 2500/2507 3800 -SHRA SCT013 BKN030
    TEMPO 2510/2515 27012KT
    PROB40 TEMPO 2513/2600 -RA=

24.03.2019 - 17:00 UTC (Včera)

TAF LZSL 241700Z 2418/2503 35004KT CAVOK
    TEMPO 2418/2420 32006KT
    TEMPO 2419/2503 9999 SCT040 SCT100=
TAF LZPP 241700Z 2418/2503 VRB02KT CAVOK
    TEMPO 2420/2500 01005KT 9999 BKN040 SCT100=
TAF LZZI 241700Z 2418/2503 08005KT 9999 FEW045 BKN080
    PROB40 TEMPO 2420/2503 -RA BKN040=

skok na menu ↑


skok na začiatok stránky ↑